Terminal Aerodrome Forecast
Issued by NWS

Home | Current Version | Previous Version | Graphics & Text | Print | Product List | Glossary On
Versions: 1 2 3 4 5 6 7 8 9 10 11 12 13 14 15 16 17 18
000
FTUS43 KICT 171736
TAFHUT
TAF
KHUT 171736Z 1718/1818 11009KT P6SM SCT010 OVC050
     FM172300 12007KT P6SM -SN OVC012
     FM180200 12007KT 4SM -SN OVC007
     FM180600 12008KT 2SM -SN OVC009
     FM181200 10008KT 5SM -FZDZ OVC009
     FM181500 03007KT P6SM -DZ OVC009=

USA.gov is the U.S. government's official web portal to all federal, state and local government web resources and services.